Time;durP1;ratioP1;P1;durP2;ratioP2;P2;SDS_P1;SDS_P2;PMS_P1;PMS_P2;Temp;Humidity;BMP_temperature;BMP_pressure;BME280_temperature;BME280_humidity;BME280_pressure;Samples;Min_cycle;Max_cycle;Signal;HPM_P1;HPM_P2
2023/07/12 00:00:44;;;;;;;4.13;2.50;;;24.20;99.90;;;;;;2092937;28;20017;-71
2023/07/12 00:01:44;;;;;;;5.43;2.45;;;24.20;99.90;;;;;;2090701;28;20025;-71
2023/07/12 00:02:45;;;;;;;4.43;2.22;;;24.20;99.90;;;;;;2092739;28;20556;-71
2023/07/12 00:03:45;;;;;;;3.75;2.00;;;24.20;99.90;;;;;;2090935;28;20055;-71
2023/07/12 00:04:46;;;;;;;3.55;2.13;;;24.10;99.90;;;;;;2093337;28;20036;-71
2023/07/12 00:05:47;;;;;;;4.70;2.03;;;24.10;99.90;;;;;;2091151;28;20389;-71
2023/07/12 00:06:47;;;;;;;4.38;2.05;;;24.00;99.90;;;;;;2091741;28;20033;-71
2023/07/12 00:07:48;;;;;;;5.07;2.03;;;24.00;99.90;;;;;;2093209;28;20020;-71
2023/07/12 00:08:49;;;;;;;2.47;2.20;;;23.90;99.90;;;;;;2093471;28;20060;-71
2023/07/12 00:09:49;;;;;;;4.00;2.35;;;23.90;99.90;;;;;;2092349;28;20032;-71
2023/07/12 00:10:51;;;;;;;5.40;2.20;;;23.90;99.90;;;;;;2092707;28;20025;-71
2023/07/12 00:11:51;;;;;;;4.10;2.30;;;23.90;99.90;;;;;;2093099;28;20028;-71
2023/07/12 00:12:53;;;;;;;3.92;2.17;;;23.90;99.90;;;;;;2090964;28;20019;-71
2023/07/12 00:13:54;;;;;;;2.95;2.00;;;23.80;99.90;;;;;;2091538;28;20048;-70
2023/07/12 00:14:55;;;;;;;2.53;1.92;;;23.90;99.90;;;;;;2093179;28;20035;-71
2023/07/12 00:15:56;;;;;;;2.92;2.33;;;23.80;99.90;;;;;;2092804;28;20111;-71
2023/07/12 00:16:56;;;;;;;3.63;2.10;;;23.80;99.90;;;;;;2090505;28;20029;-70
2023/07/12 00:17:57;;;;;;;3.78;2.38;;;23.80;99.90;;;;;;2092445;28;20103;-71
2023/07/12 00:18:58;;;;;;;2.35;2.13;;;23.80;99.90;;;;;;2093520;28;20035;-71
2023/07/12 00:19:59;;;;;;;3.28;1.90;;;23.80;99.90;;;;;;2090595;28;20107;-71
2023/07/12 00:20:59;;;;;;;2.13;1.67;;;23.70;99.90;;;;;;2092174;28;20492;-71
2023/07/12 00:22:00;;;;;;;1.73;1.60;;;23.80;99.90;;;;;;2093448;28;20029;-71
2023/07/12 00:23:01;;;;;;;4.13;1.65;;;23.70;99.90;;;;;;2093653;28;20081;-71
2023/07/12 00:24:02;;;;;;;3.70;2.00;;;23.70;99.90;;;;;;2091523;28;20497;-71
2023/07/12 00:25:03;;;;;;;2.97;1.83;;;23.70;99.90;;;;;;2090793;28;20033;-70
2023/07/12 00:26:19;;;;;;;3.05;1.90;;;23.70;99.90;;;;;;2092690;28;20025;-71
2023/07/12 00:27:19;;;;;;;3.05;1.60;;;23.70;99.90;;;;;;2092665;28;20021;-71
2023/07/12 00:28:27;;;;;;;3.95;2.00;;;23.70;99.90;;;;;;2092645;28;20028;-71
2023/07/12 00:29:27;;;;;;;2.25;1.67;;;23.70;99.90;;;;;;2094244;28;20028;-71
2023/07/12 00:30:31;;;;;;;3.15;1.42;;;23.70;99.90;;;;;;2091422;28;20045;-71
2023/07/12 00:31:32;;;;;;;3.47;1.60;;;23.70;99.90;;;;;;2091244;28;20024;-71
2023/07/12 00:32:33;;;;;;;3.72;1.60;;;23.70;99.90;;;;;;2093944;28;20043;-71
2023/07/12 00:33:34;;;;;;;3.83;1.40;;;23.70;99.90;;;;;;2092594;28;20055;-70
2023/07/12 00:34:34;;;;;;;2.10;1.63;;;23.70;99.90;;;;;;2095461;28;20021;-70
2023/07/12 00:35:39;;;;;;;1.85;1.20;;;23.70;99.90;;;;;;2093260;28;20583;-71
2023/07/12 00:36:40;;;;;;;1.25;1.17;;;23.70;99.90;;;;;;2092909;28;20426;-71
2023/07/12 00:37:40;;;;;;;2.50;1.50;;;23.60;99.90;;;;;;2092737;28;20438;-71
2023/07/12 00:38:41;;;;;;;3.25;1.80;;;23.60;99.90;;;;;;2093442;28;20025;-71
2023/07/12 00:39:42;;;;;;;1.35;1.25;;;23.60;99.90;;;;;;2086957;28;20534;-71
2023/07/12 00:41:09;;;;;;;3.15;1.60;;;23.60;99.90;;;;;;2093359;28;20025;-71
2023/07/12 00:42:23;;;;;;;3.25;1.60;;;23.50;99.90;;;;;;2084933;28;20033;-71
2023/07/12 00:43:46;;;;;;;3.60;1.55;;;23.50;99.90;;;;;;2091943;28;20040;-71
2023/07/12 00:44:55;;;;;;;6.80;1.90;;;23.50;99.90;;;;;;2090764;28;20036;-71
2023/07/12 00:45:59;;;;;;;3.70;1.67;;;23.50;99.90;;;;;;2092124;28;20045;-71
2023/07/12 00:47:00;;;;;;;3.35;1.75;;;23.40;99.90;;;;;;2091372;28;20508;-71
2023/07/12 00:48:00;;;;;;;3.75;1.52;;;23.40;99.90;;;;;;2092600;28;20029;-71
2023/07/12 00:49:01;;;;;;;1.95;1.58;;;23.40;99.90;;;;;;2092320;28;20041;-70
2023/07/12 00:50:01;;;;;;;2.92;1.63;;;23.40;99.90;;;;;;2090968;28;20032;-70
2023/07/12 00:51:37;;;;;;;3.00;1.75;;;23.40;99.90;;;;;;2092742;28;20028;-70
2023/07/12 00:52:38;;;;;;;3.47;1.70;;;23.40;99.90;;;;;;2091828;28;20064;-71
2023/07/12 00:53:38;;;;;;;2.10;1.42;;;23.40;99.90;;;;;;2093724;28;20025;-71
2023/07/12 00:54:48;;;;;;;3.17;1.60;;;23.50;99.90;;;;;;2093163;28;20020;-71
2023/07/12 00:56:15;;;;;;;6.55;1.50;;;23.50;99.90;;;;;;2091110;28;20040;-70
2023/07/12 00:57:15;;;;;;;2.92;1.70;;;23.50;99.90;;;;;;2089945;28;20471;-70
2023/07/12 00:58:16;;;;;;;1.95;1.40;;;23.40;99.90;;;;;;2090861;28;20032;-70
2023/07/12 00:59:29;;;;;;;1.33;1.23;;;23.50;99.90;;;;;;2091764;28;20584;-71
2023/07/12 01:00:29;;;;;;;4.72;1.77;;;23.50;99.90;;;;;;2090044;28;20032;-70
2023/07/12 01:01:34;;;;;;;2.25;1.20;;;23.50;99.90;;;;;;2094701;28;20013;-71
2023/07/12 01:02:34;;;;;;;1.52;1.27;;;23.50;99.90;;;;;;2092800;28;20039;-71
2023/07/12 01:03:37;;;;;;;2.13;1.50;;;23.50;99.90;;;;;;2093173;28;20377;-71
2023/07/12 01:04:42;;;;;;;2.15;1.48;;;23.50;99.90;;;;;;2090340;28;20036;-71
2023/07/12 01:05:45;;;;;;;2.83;1.73;;;23.60;99.90;;;;;;2092937;28;20024;-71
2023/07/12 01:06:46;;;;;;;1.85;1.45;;;23.50;99.90;;;;;;2092183;28;20053;-71
2023/07/12 01:07:46;;;;;;;2.53;1.58;;;23.50;99.90;;;;;;2091400;28;20511;-71
2023/07/12 01:08:47;;;;;;;2.88;1.50;;;23.50;99.90;;;;;;2091627;28;20025;-71
2023/07/12 01:09:47;;;;;;;1.10;1.00;;;23.50;99.90;;;;;;2092762;28;20021;-71
2023/07/12 01:10:48;;;;;;;2.55;1.45;;;23.50;99.90;;;;;;2089517;28;20033;-71
2023/07/12 01:11:50;;;;;;;3.85;1.75;;;23.50;99.90;;;;;;2093426;28;20027;-71
2023/07/12 01:12:50;;;;;;;2.03;1.40;;;23.50;99.90;;;;;;2091929;28;20520;-71
2023/07/12 01:13:51;;;;;;;3.40;1.33;;;23.50;99.90;;;;;;2091329;28;20403;-71
2023/07/12 01:14:52;;;;;;;1.35;1.10;;;23.50;99.90;;;;;;2092970;28;20336;-71
2023/07/12 01:15:52;;;;;;;1.77;1.20;;;23.50;99.90;;;;;;2092472;28;20029;-71
2023/07/12 01:17:00;;;;;;;1.55;1.15;;;23.40;99.90;;;;;;2092549;28;20480;-71
2023/07/12 01:18:01;;;;;;;1.70;1.02;;;23.40;99.90;;;;;;2089885;28;20021;-71
2023/07/12 01:19:02;;;;;;;1.40;1.30;;;23.40;99.90;;;;;;2099081;28;20038;-71
2023/07/12 01:20:04;;;;;;;2.10;1.17;;;23.40;99.90;;;;;;2094913;28;20028;-71
2023/07/12 01:21:15;;;;;;;1.58;1.48;;;23.40;99.90;;;;;;2089656;28;20055;-70
2023/07/12 01:22:16;;;;;;;1.98;1.30;;;23.30;99.90;;;;;;2091217;28;20489;-71
2023/07/12 01:23:17;;;;;;;1.70;1.00;;;23.30;99.90;;;;;;2092977;28;20050;-71
2023/07/12 01:24:18;;;;;;;1.42;1.13;;;23.20;99.90;;;;;;2092840;28;20094;-71
2023/07/12 01:25:34;;;;;;;3.15;1.40;;;23.20;99.90;;;;;;2091581;28;20039;-71
2023/07/12 01:26:38;;;;;;;1.45;1.02;;;23.20;99.90;;;;;;2091649;28;20025;-71
2023/07/12 01:27:39;;;;;;;1.75;1.13;;;23.20;99.90;;;;;;2093130;28;20726;-71
2023/07/12 01:28:41;;;;;;;3.10;1.33;;;23.20;99.90;;;;;;2091871;28;20392;-71
2023/07/12 01:29:42;;;;;;;1.13;1.13;;;23.20;99.90;;;;;;2090468;28;20033;-71
2023/07/12 01:30:42;;;;;;;3.30;1.20;;;23.20;99.90;;;;;;2090809;28;20032;-71
2023/07/12 01:31:46;;;;;;;1.55;1.17;;;23.20;99.90;;;;;;2091954;28;20016;-71
2023/07/12 01:32:52;;;;;;;2.58;1.20;;;23.20;99.90;;;;;;2092273;28;20028;-71
2023/07/12 01:33:53;;;;;;;1.92;1.30;;;23.20;99.90;;;;;;2091814;28;20474;-71
2023/07/12 01:34:54;;;;;;;1.92;1.30;;;23.20;99.90;;;;;;2090690;28;20534;-71
2023/07/12 01:35:54;;;;;;;2.10;1.17;;;23.20;99.90;;;;;;2095562;28;20066;-71
2023/07/12 01:36:55;;;;;;;1.50;1.20;;;23.20;99.90;;;;;;2094628;28;20020;-71
2023/07/12 01:37:55;;;;;;;2.92;1.40;;;23.20;99.90;;;;;;2090588;28;20044;-71
2023/07/12 01:38:58;;;;;;;2.10;1.35;;;23.20;99.90;;;;;;2090990;28;20560;-71
2023/07/12 01:39:58;;;;;;;2.10;1.38;;;23.20;99.90;;;;;;2090665;28;20689;-71
2023/07/12 01:40:59;;;;;;;2.17;1.50;;;23.20;99.90;;;;;;2091155;28;20044;-71
2023/07/12 01:42:00;;;;;;;1.67;1.13;;;23.20;99.90;;;;;;2091120;28;20906;-71
2023/07/12 01:43:01;;;;;;;1.30;1.10;;;23.20;99.90;;;;;;2091223;28;20408;-71
2023/07/12 01:44:02;;;;;;;1.33;1.05;;;23.20;99.90;;;;;;2092729;28;20024;-71
2023/07/12 01:45:03;;;;;;;2.33;1.25;;;23.20;99.90;;;;;;2091661;28;20036;-71
2023/07/12 01:46:04;;;;;;;2.45;1.70;;;23.20;99.90;;;;;;2091915;28;20029;-71
2023/07/12 01:47:05;;;;;;;2.83;1.70;;;23.20;99.90;;;;;;2091705;28;20025;-71
2023/07/12 01:48:05;;;;;;;1.60;1.10;;;23.20;99.90;;;;;;2090700;28;20402;-71
2023/07/12 01:49:06;;;;;;;1.50;1.38;;;23.20;99.90;;;;;;2099049;28;20365;-71
2023/07/12 01:50:07;;;;;;;2.28;1.60;;;23.20;99.90;;;;;;2098848;28;20454;-71
2023/07/12 01:51:08;;;;;;;1.48;1.10;;;23.20;99.90;;;;;;2092422;28;20036;-71
2023/07/12 01:52:09;;;;;;;1.90;1.02;;;23.20;99.90;;;;;;2092768;28;20019;-71
2023/07/12 01:53:09;;;;;;;2.53;2.13;;;23.20;99.90;;;;;;2091458;28;20013;-71
2023/07/12 01:54:10;;;;;;;1.33;1.10;;;23.20;99.90;;;;;;2091002;28;20025;-71
2023/07/12 01:55:11;;;;;;;1.85;1.52;;;23.20;99.90;;;;;;2093377;28;20041;-71
2023/07/12 01:56:12;;;;;;;2.60;1.30;;;23.20;99.90;;;;;;2092419;28;20707;-71
2023/07/12 01:57:13;;;;;;;4.03;1.55;;;23.20;99.90;;;;;;2093226;28;20031;-71
2023/07/12 01:58:13;;;;;;;1.98;1.52;;;23.20;99.90;;;;;;2091497;28;20096;-71
2023/07/12 01:59:14;;;;;;;3.08;1.42;;;23.20;99.90;;;;;;2092459;28;20082;-71
2023/07/12 02:00:15;;;;;;;1.50;1.30;;;23.20;99.90;;;;;;2091308;28;20045;-71
2023/07/12 02:01:15;;;;;;;1.77;1.17;;;23.20;99.90;;;;;;2092124;28;20074;-71
2023/07/12 02:02:16;;;;;;;2.30;1.27;;;23.20;99.90;;;;;;2091479;28;20020;-71
2023/07/12 02:03:17;;;;;;;2.60;1.35;;;23.20;99.90;;;;;;2090386;28;20058;-71
2023/07/12 02:04:17;;;;;;;2.15;1.30;;;23.20;99.90;;;;;;2090774;28;20035;-71
2023/07/12 02:05:21;;;;;;;1.77;1.27;;;23.20;99.90;;;;;;2092371;28;20031;-71
2023/07/12 02:06:22;;;;;;;1.20;1.10;;;23.20;99.90;;;;;;2090088;28;20031;-71
2023/07/12 02:07:23;;;;;;;1.95;1.35;;;23.10;99.90;;;;;;2090422;28;20029;-71
2023/07/12 02:08:23;;;;;;;2.42;1.30;;;23.10;99.90;;;;;;2090458;28;20092;-71
2023/07/12 02:09:27;;;;;;;2.22;1.45;;;23.10;99.90;;;;;;2090652;28;20063;-71
2023/07/12 02:10:28;;;;;;;2.67;1.10;;;23.10;99.90;;;;;;2090392;28;20060;-71
2023/07/12 02:11:28;;;;;;;2.20;1.50;;;23.10;99.90;;;;;;2090372;28;20017;-71
2023/07/12 02:12:29;;;;;;;1.38;1.27;;;23.10;99.90;;;;;;2092727;28;20473;-71
2023/07/12 02:13:31;;;;;;;3.22;1.17;;;23.10;99.90;;;;;;2091708;28;20546;-71
2023/07/12 02:14:31;;;;;;;1.80;1.10;;;23.10;99.90;;;;;;2092906;28;20025;-71
2023/07/12 02:15:32;;;;;;;2.13;1.25;;;23.10;99.90;;;;;;2092342;28;20090;-71
2023/07/12 02:16:32;;;;;;;2.17;1.33;;;23.10;99.90;;;;;;2090965;28;20020;-71
2023/07/12 02:17:33;;;;;;;3.35;1.58;;;23.10;99.90;;;;;;2091380;28;20102;-71
2023/07/12 02:18:34;;;;;;;2.35;1.60;;;23.10;99.90;;;;;;2092084;28;20391;-71
2023/07/12 02:19:34;;;;;;;4.05;1.90;;;23.00;99.90;;;;;;2094468;28;20024;-71
2023/07/12 02:20:35;;;;;;;2.05;1.55;;;23.00;99.90;;;;;;2093783;28;20112;-71
2023/07/12 02:21:35;;;;;;;2.72;1.58;;;23.00;99.90;;;;;;2091584;28;20032;-71
2023/07/12 02:22:37;;;;;;;3.47;1.40;;;23.00;99.90;;;;;;2091632;28;20043;-71
2023/07/12 02:23:38;;;;;;;1.38;1.27;;;23.00;99.90;;;;;;2090948;28;20016;-71
2023/07/12 02:24:38;;;;;;;1.92;1.40;;;23.00;99.90;;;;;;2090964;28;20021;-71
2023/07/12 02:25:41;;;;;;;1.90;1.52;;;23.00;99.90;;;;;;2094506;28;20036;-71
2023/07/12 02:26:41;;;;;;;4.10;1.38;;;22.90;99.90;;;;;;2091936;28;20029;-71
2023/07/12 02:27:44;;;;;;;2.75;1.65;;;23.00;99.90;;;;;;2093881;28;20025;-71
2023/07/12 02:28:45;;;;;;;2.88;1.27;;;22.90;99.90;;;;;;2093344;28;20143;-71
2023/07/12 02:29:45;;;;;;;2.13;1.70;;;22.90;99.90;;;;;;2092806;28;20025;-71
2023/07/12 02:30:46;;;;;;;5.07;1.40;;;22.90;99.90;;;;;;2095294;28;20516;-71
2023/07/12 02:31:46;;;;;;;1.63;1.50;;;22.90;99.90;;;;;;2093604;28;20439;-71
2023/07/12 02:32:47;;;;;;;3.63;1.67;;;22.90;99.90;;;;;;2092060;28;20048;-71
2023/07/12 02:33:49;;;;;;;4.47;2.00;;;22.90;99.90;;;;;;2093454;28;20025;-71
2023/07/12 02:34:49;;;;;;;2.47;2.20;;;22.90;99.90;;;;;;2090414;28;20025;-71
2023/07/12 02:35:50;;;;;;;2.85;2.03;;;22.90;99.90;;;;;;2092435;28;20792;-71
2023/07/12 02:36:51;;;;;;;2.30;1.50;;;22.90;99.90;;;;;;2092573;28;20104;-71
2023/07/12 02:37:52;;;;;;;2.65;1.80;;;22.80;99.90;;;;;;2092968;28;20021;-71
2023/07/12 02:38:52;;;;;;;2.70;2.00;;;22.80;99.90;;;;;;2093954;28;20026;-71
2023/07/12 02:39:53;;;;;;;6.38;1.80;;;22.90;99.90;;;;;;2093296;28;20036;-71
2023/07/12 02:40:53;;;;;;;2.78;1.92;;;22.90;99.90;;;;;;2092901;28;20024;-71
2023/07/12 02:41:54;;;;;;;2.95;1.80;;;22.80;99.90;;;;;;2095352;28;20110;-71
2023/07/12 02:42:55;;;;;;;5.45;2.35;;;22.80;99.90;;;;;;2094597;28;20036;-71
2023/07/12 02:43:55;;;;;;;5.05;1.73;;;22.80;99.90;;;;;;2093459;28;20661;-71
2023/07/12 02:44:56;;;;;;;3.92;1.90;;;22.80;99.90;;;;;;2091761;28;20548;-71
2023/07/12 02:45:56;;;;;;;2.33;1.88;;;22.80;99.90;;;;;;2095246;28;20473;-71
2023/07/12 02:46:57;;;;;;;3.33;2.08;;;22.80;99.90;;;;;;2095350;28;20297;-71
2023/07/12 02:47:58;;;;;;;3.78;2.08;;;22.80;99.90;;;;;;2093950;28;20467;-71
2023/07/12 02:48:58;;;;;;;3.05;2.05;;;22.70;99.90;;;;;;2092575;28;20106;-70
2023/07/12 02:49:59;;;;;;;6.15;2.20;;;22.70;99.90;;;;;;2093298;28;20048;-70
2023/07/12 02:50:59;;;;;;;5.70;2.40;;;22.70;99.90;;;;;;2093741;28;20033;-70
2023/07/12 02:51:59;;;;;;;5.43;1.98;;;22.70;99.90;;;;;;2093151;28;20052;-70
2023/07/12 02:53:14;;;;;;;5.53;2.20;;;22.60;99.90;;;;;;2092492;28;20025;-70
2023/07/12 02:54:14;;;;;;;4.53;1.60;;;22.60;99.90;;;;;;2092725;28;20009;-71
2023/07/12 02:55:15;;;;;;;2.55;1.85;;;22.60;99.90;;;;;;2093534;28;20070;-71
2023/07/12 02:56:15;;;;;;;3.83;1.92;;;22.60;99.90;;;;;;2094784;28;20020;-71
2023/07/12 02:57:16;;;;;;;4.15;1.65;;;22.50;99.90;;;;;;2093288;28;20109;-71
2023/07/12 02:58:18;;;;;;;3.42;1.45;;;22.50;99.90;;;;;;2092654;28;20025;-71
2023/07/12 02:59:19;;;;;;;2.95;1.65;;;22.50;99.90;;;;;;2091476;28;20017;-71
2023/07/12 03:00:21;;;;;;;2.92;1.80;;;22.40;99.90;;;;;;2091929;28;20058;-71
2023/07/12 03:01:21;;;;;;;5.90;1.80;;;22.40;99.90;;;;;;2093239;28;20027;-71
2023/07/12 03:02:22;;;;;;;6.35;2.03;;;22.40;99.90;;;;;;2093097;28;20029;-71
2023/07/12 03:03:22;;;;;;;5.38;1.92;;;22.40;99.90;;;;;;2091396;28;20029;-71
2023/07/12 03:04:23;;;;;;;4.95;2.00;;;22.30;99.90;;;;;;2095382;28;20401;-70
2023/07/12 03:05:23;;;;;;;5.90;2.00;;;22.30;99.90;;;;;;2094126;28;20491;-70
2023/07/12 03:06:24;;;;;;;4.07;2.10;;;22.30;99.90;;;;;;2094338;28;20152;-71
2023/07/12 03:07:25;;;;;;;6.65;2.33;;;22.30;99.90;;;;;;2093974;28;20388;-71
2023/07/12 03:08:26;;;;;;;2.90;1.80;;;22.30;99.90;;;;;;2091060;28;20036;-71
2023/07/12 03:09:27;;;;;;;5.30;2.38;;;22.20;99.90;;;;;;2090568;28;20025;-70
2023/07/12 03:10:29;;;;;;;3.40;1.85;;;22.20;99.90;;;;;;2090230;28;20021;-70
2023/07/12 03:11:29;;;;;;;5.65;2.22;;;22.20;99.90;;;;;;2093159;28;20021;-70
2023/07/12 03:12:30;;;;;;;4.88;2.17;;;22.10;99.90;;;;;;2094098;28;20136;-70
2023/07/12 03:13:31;;;;;;;4.28;2.05;;;22.10;99.90;;;;;;2092923;28;20032;-70
2023/07/12 03:14:31;;;;;;;4.25;2.08;;;22.10;99.90;;;;;;2092462;28;20626;-70
2023/07/12 03:15:36;;;;;;;2.67;1.77;;;22.00;99.90;;;;;;2091924;28;20055;-70
2023/07/12 03:16:37;;;;;;;5.20;2.42;;;22.00;99.90;;;;;;2091463;28;20380;-70
2023/07/12 03:17:38;;;;;;;3.20;1.88;;;22.00;99.90;;;;;;2093481;28;20043;-70
2023/07/12 03:18:38;;;;;;;2.63;1.80;;;22.00;99.90;;;;;;2092857;28;20636;-70
2023/07/12 03:19:38;;;;;;;3.85;1.90;;;22.00;99.90;;;;;;2091386;28;20028;-70
2023/07/12 03:20:39;;;;;;;2.28;1.58;;;22.00;99.90;;;;;;2092999;28;20085;-70
2023/07/12 03:21:39;;;;;;;3.47;1.65;;;22.00;99.90;;;;;;2094558;28;20067;-70
2023/07/12 03:22:40;;;;;;;3.80;1.80;;;21.90;99.90;;;;;;2094294;28;20032;-70
2023/07/12 03:23:42;;;;;;;2.45;1.48;;;21.90;99.90;;;;;;2092487;28;20029;-71
2023/07/12 03:24:42;;;;;;;4.25;1.67;;;21.90;99.90;;;;;;2092395;28;20652;-71
2023/07/12 03:25:47;;;;;;;3.38;1.63;;;21.90;99.90;;;;;;2092840;28;20025;-70
2023/07/12 03:26:47;;;;;;;2.10;1.27;;;21.80;99.90;;;;;;2092256;28;20040;-71
2023/07/12 03:27:48;;;;;;;4.15;2.00;;;21.80;99.90;;;;;;2091430;28;20501;-71
2023/07/12 03:28:48;;;;;;;3.13;1.77;;;21.80;99.90;;;;;;2092485;28;20075;-71
2023/07/12 03:29:49;;;;;;;5.85;1.85;;;21.80;99.90;;;;;;2090361;28;20044;-71
2023/07/12 03:31:08;;;;;;;3.58;1.50;;;21.70;99.90;;;;;;2092032;28;20036;-70
2023/07/12 03:32:08;;;;;;;4.50;2.08;;;21.70;99.90;;;;;;2092996;28;20367;-70
2023/07/12 03:33:09;;;;;;;5.80;1.77;;;21.70;99.90;;;;;;2093036;28;20047;-70
2023/07/12 03:34:09;;;;;;;5.53;2.00;;;21.70;99.90;;;;;;2093093;28;20032;-70
2023/07/12 03:35:10;;;;;;;4.95;1.85;;;21.70;99.90;;;;;;2092438;28;20107;-70
2023/07/12 03:36:11;;;;;;;6.68;2.30;;;21.60;99.90;;;;;;2091069;28;20378;-70
2023/07/12 03:37:14;;;;;;;6.45;2.03;;;21.60;99.90;;;;;;2093866;28;20763;-70
2023/07/12 03:38:14;;;;;;;4.18;1.95;;;21.60;99.90;;;;;;2091400;28;20113;-70
2023/07/12 03:39:15;;;;;;;3.92;2.05;;;21.60;99.90;;;;;;2092793;28;20021;-70
2023/07/12 03:40:15;;;;;;;5.28;1.85;;;21.60;99.90;;;;;;2092961;28;20023;-70
2023/07/12 03:41:17;;;;;;;5.13;2.15;;;21.50;99.90;;;;;;2093051;28;20519;-70
2023/07/12 03:42:18;;;;;;;4.95;2.58;;;21.50;99.90;;;;;;2093266;28;20112;-71
2023/07/12 03:43:19;;;;;;;5.65;1.95;;;21.50;99.90;;;;;;2091705;28;20121;-71
2023/07/12 03:44:19;;;;;;;4.65;1.80;;;21.50;99.90;;;;;;2089469;28;20043;-71
2023/07/12 03:45:20;;;;;;;7.13;1.77;;;21.50;99.90;;;;;;2091565;28;20037;-71
2023/07/12 03:46:20;;;;;;;3.80;1.60;;;21.50;99.90;;;;;;2092407;28;20538;-71
2023/07/12 03:47:21;;;;;;;6.80;2.08;;;21.50;99.90;;;;;;2092035;28;20632;-71
2023/07/12 03:48:23;;;;;;;3.80;2.10;;;21.50;99.90;;;;;;2092927;28;20123;-71
2023/07/12 03:49:23;;;;;;;2.83;1.38;;;21.50;99.90;;;;;;2092427;28;20021;-71
2023/07/12 03:50:24;;;;;;;4.70;1.65;;;21.50;99.90;;;;;;2092178;28;20111;-71
2023/07/12 03:51:24;;;;;;;10.57;2.00;;;21.50;99.90;;;;;;2092548;28;20024;-71
2023/07/12 03:52:25;;;;;;;4.50;1.90;;;21.50;99.90;;;;;;2093109;28;20073;-71
2023/07/12 03:53:27;;;;;;;3.85;1.85;;;21.50;99.90;;;;;;2093213;28;20103;-72
2023/07/12 03:54:28;;;;;;;4.00;1.63;;;21.40;99.90;;;;;;2095224;28;20021;-71
2023/07/12 03:55:28;;;;;;;4.35;1.70;;;21.40;99.90;;;;;;2095334;28;20028;-71
2023/07/12 03:56:29;;;;;;;2.78;1.75;;;21.40;99.90;;;;;;2092657;28;20033;-71
2023/07/12 03:57:29;;;;;;;4.32;1.83;;;21.40;99.90;;;;;;2094104;28;20392;-71
2023/07/12 03:58:33;;;;;;;4.15;2.10;;;21.40;99.90;;;;;;2090935;28;20499;-71
2023/07/12 03:59:34;;;;;;;3.67;2.00;;;21.40;99.90;;;;;;2091271;28;20138;-71
2023/07/12 04:00:34;;;;;;;3.50;1.80;;;21.40;99.90;;;;;;2090080;28;20037;-71
2023/07/12 04:01:38;;;;;;;3.53;1.95;;;21.40;99.90;;;;;;2090964;28;20154;-71
2023/07/12 04:02:40;;;;;;;3.72;1.85;;;21.40;99.90;;;;;;2093760;28;20052;-71
2023/07/12 04:03:40;;;;;;;5.13;2.08;;;21.40;99.90;;;;;;2092835;28;20057;-71
2023/07/12 04:04:41;;;;;;;6.97;1.92;;;21.40;99.90;;;;;;2092763;28;20032;-71
2023/07/12 04:05:42;;;;;;;3.88;2.00;;;21.40;99.90;;;;;;2091523;28;20095;-71
2023/07/12 04:06:43;;;;;;;6.82;2.40;;;21.40;99.90;;;;;;2091578;28;20684;-71
2023/07/12 04:07:43;;;;;;;5.93;2.30;;;21.40;99.90;;;;;;2092269;28;20451;-71
2023/07/12 04:08:44;;;;;;;4.55;2.38;;;21.30;99.90;;;;;;2092812;28;20388;-71
2023/07/12 04:09:44;;;;;;;3.45;1.95;;;21.40;99.90;;;;;;2093763;28;20036;-71
2023/07/12 04:10:45;;;;;;;3.55;1.85;;;21.30;99.90;;;;;;2093773;28;20037;-71
2023/07/12 04:11:45;;;;;;;5.68;2.13;;;21.30;99.90;;;;;;2092510;28;20032;-71
2023/07/12 04:12:46;;;;;;;4.57;2.33;;;21.30;99.90;;;;;;2092445;28;20087;-71
2023/07/12 04:13:46;;;;;;;3.97;2.45;;;21.40;99.90;;;;;;2092248;28;20032;-71
2023/07/12 04:14:47;;;;;;;7.40;2.40;;;21.30;99.90;;;;;;2089940;28;20056;-71
2023/07/12 04:15:48;;;;;;;4.65;1.85;;;21.30;99.90;;;;;;2092994;28;20029;-71
2023/07/12 04:16:49;;;;;;;4.35;1.98;;;21.30;99.90;;;;;;2092791;28;20047;-71
2023/07/12 04:17:49;;;;;;;3.10;2.10;;;21.30;99.90;;;;;;2091456;28;20609;-71
2023/07/12 04:18:51;;;;;;;3.42;2.08;;;21.30;99.90;;;;;;2091825;28;20029;-71
2023/07/12 04:19:51;;;;;;;4.80;2.40;;;21.30;99.90;;;;;;2091945;28;20051;-71
2023/07/12 04:20:53;;;;;;;3.08;2.00;;;21.30;99.90;;;;;;2094012;28;20064;-71
2023/07/12 04:21:54;;;;;;;3.90;2.38;;;21.30;99.90;;;;;;2091417;28;20045;-71
2023/07/12 04:22:54;;;;;;;3.95;2.10;;;21.30;99.90;;;;;;2092794;28;20492;-71
2023/07/12 04:23:55;;;;;;;4.32;1.73;;;21.30;99.90;;;;;;2093070;28;20108;-71
2023/07/12 04:24:55;;;;;;;3.83;2.13;;;21.30;99.90;;;;;;2092316;28;20032;-71
2023/07/12 04:26:00;;;;;;;6.40;2.15;;;21.30;99.90;;;;;;2094517;28;20032;-71
2023/07/12 04:27:01;;;;;;;3.72;2.15;;;21.30;99.90;;;;;;2094213;28;20041;-71
2023/07/12 04:28:01;;;;;;;4.38;2.17;;;21.30;99.90;;;;;;2090475;28;20037;-71
2023/07/12 04:29:02;;;;;;;4.70;2.28;;;21.30;99.90;;;;;;2091317;28;20074;-71
2023/07/12 04:30:10;;;;;;;5.05;2.17;;;21.30;99.90;;;;;;2090944;28;20052;-71
2023/07/12 04:31:11;;;;;;;3.40;1.83;;;21.30;99.90;;;;;;2091393;28;20017;-71
2023/07/12 04:32:11;;;;;;;3.80;1.95;;;21.30;99.90;;;;;;2091885;28;20167;-71
2023/07/12 04:33:12;;;;;;;2.97;1.70;;;21.30;99.90;;;;;;2092390;28;20052;-71
2023/07/12 04:34:12;;;;;;;5.68;2.00;;;21.30;99.90;;;;;;2092937;28;20090;-71
2023/07/12 04:35:14;;;;;;;4.70;2.13;;;21.30;99.90;;;;;;2090397;28;20098;-71
2023/07/12 04:36:17;;;;;;;4.18;1.70;;;21.30;99.90;;;;;;2091849;28;20024;-71
2023/07/12 04:37:18;;;;;;;6.00;2.22;;;21.30;99.90;;;;;;2091883;28;20017;-71
2023/07/12 04:38:18;;;;;;;3.08;1.92;;;21.30;99.90;;;;;;2092284;28;20028;-71
2023/07/12 04:39:19;;;;;;;4.07;1.70;;;21.30;99.90;;;;;;2088971;28;20009;-71
2023/07/12 04:40:20;;;;;;;4.78;1.80;;;21.30;99.90;;;;;;2088977;28;20019;-71
2023/07/12 04:41:20;;;;;;;4.60;1.95;;;21.30;99.90;;;;;;2092111;28;20032;-71
2023/07/12 04:42:21;;;;;;;4.38;2.00;;;21.30;99.90;;;;;;2091442;28;20017;-71
2023/07/12 04:43:22;;;;;;;3.47;1.80;;;21.30;99.90;;;;;;2091260;28;20096;-71
2023/07/12 04:44:23;;;;;;;4.85;1.90;;;21.30;99.90;;;;;;2092733;28;20027;-71
2023/07/12 04:45:23;;;;;;;5.82;2.13;;;21.30;99.90;;;;;;2090865;28;20028;-71
2023/07/12 04:46:24;;;;;;;4.32;2.22;;;21.30;99.90;;;;;;2093350;28;20029;-71
2023/07/12 04:47:24;;;;;;;2.20;1.70;;;21.30;99.90;;;;;;2091750;28;20111;-71
2023/07/12 04:48:25;;;;;;;4.22;2.03;;;21.30;99.90;;;;;;2093336;28;20021;-71
2023/07/12 04:49:25;;;;;;;1.77;1.65;;;21.30;99.90;;;;;;2091321;28;20072;-71
2023/07/12 04:50:26;;;;;;;2.75;1.48;;;21.30;99.90;;;;;;2092595;28;20031;-71
2023/07/12 04:51:26;;;;;;;3.72;1.92;;;21.30;99.90;;;;;;2093831;28;20077;-71
2023/07/12 04:52:27;;;;;;;2.92;1.58;;;21.30;99.90;;;;;;2091314;28;20444;-71
2023/07/12 04:53:28;;;;;;;2.97;1.88;;;21.30;99.90;;;;;;2092336;28;20350;-71
2023/07/12 04:54:28;;;;;;;2.95;1.58;;;21.30;99.90;;;;;;2090574;28;20021;-71
2023/07/12 04:55:29;;;;;;;3.10;1.42;;;21.30;99.90;;;;;;2093386;28;20100;-71
2023/07/12 04:56:30;;;;;;;2.97;1.70;;;21.30;99.90;;;;;;2091061;28;20428;-71
2023/07/12 04:57:31;;;;;;;3.80;1.85;;;21.30;99.90;;;;;;2091779;28;20017;-71
2023/07/12 04:58:31;;;;;;;2.47;1.50;;;21.30;99.90;;;;;;2093906;28;20028;-71
2023/07/12 04:59:32;;;;;;;2.67;1.40;;;21.30;99.90;;;;;;2091066;28;20032;-71
2023/07/12 05:00:33;;;;;;;4.13;1.70;;;21.30;99.90;;;;;;2090910;28;20025;-71
2023/07/12 05:01:34;;;;;;;3.05;1.70;;;21.30;99.90;;;;;;2091036;28;20477;-71
2023/07/12 05:02:35;;;;;;;2.05;1.35;;;21.40;99.90;;;;;;2091370;28;20423;-71
2023/07/12 05:03:36;;;;;;;2.75;1.48;;;21.40;99.90;;;;;;2092155;28;20032;-71
2023/07/12 05:04:36;;;;;;;3.60;1.58;;;21.40;99.90;;;;;;2089519;28;20108;-71
2023/07/12 05:05:38;;;;;;;2.83;1.60;;;21.40;99.90;;;;;;2092459;28;20043;-71
2023/07/12 05:06:38;;;;;;;3.08;1.35;;;21.50;99.90;;;;;;2091522;28;20437;-71
2023/07/12 05:07:40;;;;;;;3.08;1.40;;;21.50;99.90;;;;;;2091738;28;20021;-71
2023/07/12 05:08:41;;;;;;;1.33;1.20;;;21.40;99.90;;;;;;2089568;28;20025;-71
2023/07/12 05:09:41;;;;;;;2.17;1.50;;;21.40;99.90;;;;;;2091724;28;20020;-71
2023/07/12 05:10:42;;;;;;;2.47;1.50;;;21.40;99.90;;;;;;2090657;28;20036;-71
2023/07/12 05:11:43;;;;;;;1.98;1.15;;;21.40;99.90;;;;;;2089560;28;20672;-71
2023/07/12 05:12:43;;;;;;;2.95;1.30;;;21.40;99.90;;;;;;2091340;28;20013;-71
2023/07/12 05:13:44;;;;;;;1.65;1.40;;;21.40;99.90;;;;;;2092537;28;20800;-71
2023/07/12 05:14:44;;;;;;;2.03;1.40;;;21.50;99.90;;;;;;2092210;28;20021;-71
2023/07/12 05:15:52;;;;;;;2.50;1.40;;;21.50;99.90;;;;;;2092001;28;20021;-71
2023/07/12 05:16:52;;;;;;;2.65;1.17;;;21.60;99.90;;;;;;2092680;28;20099;-71
2023/07/12 05:17:53;;;;;;;2.80;1.48;;;21.60;99.90;;;;;;2090329;28;20067;-71
2023/07/12 05:18:53;;;;;;;2.17;1.20;;;21.70;99.90;;;;;;2093561;28;20020;-71
2023/07/12 05:19:54;;;;;;;4.30;1.40;;;21.70;99.90;;;;;;2090491;28;20039;-71
2023/07/12 05:20:54;;;;;;;3.08;1.15;;;21.80;99.90;;;;;;2094161;28;20035;-71
2023/07/12 05:21:55;;;;;;;1.80;1.40;;;21.90;99.90;;;;;;2094136;28;20638;-71